Aviation Digital Data Service (ADDS)

Output produced by METARs form (1452 UTC 17 November 2019)
found at http://aviationweather.gov/metar/data/
 
METAR text: EYKA 171450Z 14005KT 110V170 5000 BR OVC004 08/07 Q1022 R08/190095
Conditions at: EYKA (KAUNAS , LT) observed 1450 UTC 17 November 2019
Temperature: 8.0°C (46°F)
Dewpoint: 7.0°C (45°F) [RH = 93%]
Pressure (altimeter): 30.18 inches Hg (1022.0 mb)
Winds: from the SE (140 degrees) at 6 MPH (5 knots; 2.6 m/s)
Visibility: 3 miles ( 5 km)
Ceiling: 400 feet AGL
Clouds: overcast cloud deck at 400 feet AGL
Weather: BR  (mist)

METAR text: EYKA 171420Z 13006KT 5000 BR OVC004 08/08 Q1022 R08/190095
Conditions at: EYKA (KAUNAS , LT) observed 1420 UTC 17 November 2019
Temperature: 8.0°C (46°F)
Dewpoint: 8.0°C (46°F) [RH = 100%]
Pressure (altimeter): 30.18 inches Hg (1022.0 mb)
Winds: from the SE (130 degrees) at 7 MPH (6 knots; 3.1 m/s)
Visibility: 3 miles ( 5 km)
Ceiling: 400 feet AGL
Clouds: overcast cloud deck at 400 feet AGL
Weather: BR  (mist)

METAR text: EYKA 171350Z 13006KT 4600 BR OVC003 08/08 Q1022 R08/190095
Conditions at: EYKA (KAUNAS , LT) observed 1350 UTC 17 November 2019
Temperature: 8.0°C (46°F)
Dewpoint: 8.0°C (46°F) [RH = 100%]
Pressure (altimeter): 30.18 inches Hg (1022.0 mb)
Winds: from the SE (130 degrees) at 7 MPH (6 knots; 3.1 m/s)
Visibility: 2.86 miles (4.60 km)
Ceiling: 300 feet AGL
Clouds: overcast cloud deck at 300 feet AGL
Weather: BR  (mist)

METAR text: EYKA 171320Z 11005KT 4200 BR OVC004 08/08 Q1022 R08/190095
Conditions at: EYKA (KAUNAS , LT) observed 1320 UTC 17 November 2019
Temperature: 8.0°C (46°F)
Dewpoint: 8.0°C (46°F) [RH = 100%]
Pressure (altimeter): 30.18 inches Hg (1022.0 mb)
Winds: from the ESE (110 degrees) at 6 MPH (5 knots; 2.6 m/s)
Visibility: 2.61 miles (4.20 km)
Ceiling: 400 feet AGL
Clouds: overcast cloud deck at 400 feet AGL
Weather: BR  (mist)

Forecast for: AMD
Text: TAF AMD EYKA 171257Z 1712/1812 12008KT 3000 BR OVC003
Forecast period: 1200 UTC 17 November 2019 to 0000 UTC 18 November 2019
Forecast type: FROM: standard forecast or significant change
Winds: from the ESE (120 degrees) at 9 MPH (8 knots; 4.1 m/s)
Visibility: 1.86 miles (2.99 km)
Ceiling: 300 feet AGL
Clouds: overcast cloud deck at 300 feet AGL
Weather: BR  (mist)
Text: TEMPO 1715/1721 0500 FG
Forecast period: 1500 to 2100 UTC 17 November 2019
Forecast type: TEMPORARY: The following changes expected for less than half the time period
Visibility: 0.31 miles (0.50 km)
Ceiling: unknown
Clouds: missing
Weather: FG  (fog)
Text: BECMG 1800/1802 7000 OVC005
Forecast period: 0000 to 0600 UTC 18 November 2019
Forecast type: BECOMING: Conditions expected to become as follows by 0200 UTC 18 November 2019
Winds: from the ESE (120 degrees) at 9 MPH (8 knots; 4.1 m/s)
Visibility: 4 miles (7 km)
Ceiling: 500 feet AGL
Clouds: overcast cloud deck at 500 feet AGL
Weather: BR  (mist)
Text: BECMG 1806/1808 BKN015
Forecast period: 0600 to 1200 UTC 18 November 2019
Forecast type: BECOMING: Conditions expected to become as follows by 0800 UTC 18 November 2019
Winds: from the ESE (120 degrees) at 9 MPH (8 knots; 4.1 m/s)
Visibility: 4 miles (7 km)
Ceiling: 1500 feet AGL
Clouds: broken clouds at 1500 feet AGL
Weather: BR  (mist)